sensor_id;sensor_type;location;lat;lon;timestamp;P1;durP1;ratioP1;P2;durP2;ratioP2
79460;SDS011;68929;42.666;23.324;2023-04-06T00:00:50;10.70;;;9.10;;
79460;SDS011;68929;42.666;23.324;2023-04-06T00:03:17;10.30;;;8.57;;
79460;SDS011;68929;42.666;23.324;2023-04-06T00:05:43;9.30;;;8.30;;
79460;SDS011;68929;42.666;23.324;2023-04-06T00:08:08;9.93;;;8.63;;
79460;SDS011;68929;42.666;23.324;2023-04-06T00:10:33;10.50;;;9.00;;
79460;SDS011;68929;42.666;23.324;2023-04-06T00:12:59;12.13;;;9.50;;
79460;SDS011;68929;42.666;23.324;2023-04-06T00:15:25;12.57;;;8.90;;
79460;SDS011;68929;42.666;23.324;2023-04-06T00:17:51;11.30;;;9.90;;
79460;SDS011;68929;42.666;23.324;2023-04-06T00:20:17;10.35;;;9.00;;
79460;SDS011;68929;42.666;23.324;2023-04-06T00:22:43;12.15;;;9.85;;
79460;SDS011;68929;42.666;23.324;2023-04-06T00:25:09;11.30;;;9.93;;
79460;SDS011;68929;42.666;23.324;2023-04-06T00:27:36;10.02;;;8.50;;
79460;SDS011;68929;42.666;23.324;2023-04-06T00:30:02;10.32;;;9.05;;
79460;SDS011;68929;42.666;23.324;2023-04-06T00:32:31;9.50;;;8.50;;
79460;SDS011;68929;42.666;23.324;2023-04-06T00:34:56;10.23;;;9.10;;
79460;SDS011;68929;42.666;23.324;2023-04-06T00:37:23;10.40;;;8.63;;
79460;SDS011;68929;42.666;23.324;2023-04-06T00:39:48;11.38;;;8.35;;
79460;SDS011;68929;42.666;23.324;2023-04-06T00:42:13;10.02;;;8.70;;
79460;SDS011;68929;42.666;23.324;2023-04-06T00:44:40;10.07;;;8.57;;
79460;SDS011;68929;42.666;23.324;2023-04-06T00:47:06;10.98;;;8.88;;
79460;SDS011;68929;42.666;23.324;2023-04-06T00:49:32;9.75;;;8.52;;
79460;SDS011;68929;42.666;23.324;2023-04-06T00:51:59;10.07;;;8.15;;
79460;SDS011;68929;42.666;23.324;2023-04-06T00:54:24;10.70;;;9.60;;
79460;SDS011;68929;42.666;23.324;2023-04-06T00:56:50;9.07;;;8.13;;
79460;SDS011;68929;42.666;23.324;2023-04-06T00:59:16;8.40;;;7.40;;
79460;SDS011;68929;42.666;23.324;2023-04-06T01:01:42;9.70;;;7.97;;
79460;SDS011;68929;42.666;23.324;2023-04-06T01:04:07;9.90;;;8.48;;
79460;SDS011;68929;42.666;23.324;2023-04-06T01:06:33;10.27;;;8.18;;
79460;SDS011;68929;42.666;23.324;2023-04-06T01:08:58;10.38;;;9.15;;
79460;SDS011;68929;42.666;23.324;2023-04-06T01:11:24;10.40;;;9.20;;
79460;SDS011;68929;42.666;23.324;2023-04-06T01:13:49;9.70;;;7.97;;
79460;SDS011;68929;42.666;23.324;2023-04-06T01:16:15;9.73;;;8.00;;
79460;SDS011;68929;42.666;23.324;2023-04-06T01:18:41;10.50;;;8.60;;
79460;SDS011;68929;42.666;23.324;2023-04-06T01:21:07;9.63;;;7.93;;
79460;SDS011;68929;42.666;23.324;2023-04-06T01:23:33;12.20;;;8.90;;
79460;SDS011;68929;42.666;23.324;2023-04-06T01:25:59;10.38;;;8.80;;
79460;SDS011;68929;42.666;23.324;2023-04-06T01:28:25;11.07;;;9.35;;
79460;SDS011;68929;42.666;23.324;2023-04-06T01:30:50;11.02;;;7.78;;
79460;SDS011;68929;42.666;23.324;2023-04-06T01:33:16;9.90;;;8.50;;
79460;SDS011;68929;42.666;23.324;2023-04-06T01:35:41;10.07;;;8.82;;
79460;SDS011;68929;42.666;23.324;2023-04-06T01:38:07;9.77;;;8.40;;
79460;SDS011;68929;42.666;23.324;2023-04-06T01:40:32;12.18;;;10.38;;
79460;SDS011;68929;42.666;23.324;2023-04-06T01:42:58;12.00;;;10.70;;
79460;SDS011;68929;42.666;23.324;2023-04-06T01:45:23;12.43;;;10.20;;
79460;SDS011;68929;42.666;23.324;2023-04-06T01:47:48;12.52;;;8.88;;
79460;SDS011;68929;42.666;23.324;2023-04-06T01:50:14;11.70;;;9.23;;
79460;SDS011;68929;42.666;23.324;2023-04-06T01:52:39;13.32;;;10.20;;
79460;SDS011;68929;42.666;23.324;2023-04-06T01:55:06;10.68;;;8.43;;
79460;SDS011;68929;42.666;23.324;2023-04-06T01:57:31;9.68;;;7.90;;
79460;SDS011;68929;42.666;23.324;2023-04-06T01:59:57;10.70;;;8.70;;
79460;SDS011;68929;42.666;23.324;2023-04-06T02:02:22;11.57;;;9.10;;
79460;SDS011;68929;42.666;23.324;2023-04-06T02:04:48;10.18;;;7.80;;
79460;SDS011;68929;42.666;23.324;2023-04-06T02:07:13;9.30;;;8.35;;
79460;SDS011;68929;42.666;23.324;2023-04-06T02:09:38;9.80;;;7.38;;
79460;SDS011;68929;42.666;23.324;2023-04-06T02:14:57;8.88;;;7.97;;
79460;SDS011;68929;42.666;23.324;2023-04-06T02:17:22;9.73;;;7.80;;
79460;SDS011;68929;42.666;23.324;2023-04-06T02:19:48;9.38;;;8.05;;
79460;SDS011;68929;42.666;23.324;2023-04-06T02:22:13;9.52;;;8.02;;
79460;SDS011;68929;42.666;23.324;2023-04-06T02:24:39;8.00;;;7.20;;
79460;SDS011;68929;42.666;23.324;2023-04-06T02:27:05;8.07;;;7.22;;
79460;SDS011;68929;42.666;23.324;2023-04-06T02:29:30;8.15;;;7.35;;
79460;SDS011;68929;42.666;23.324;2023-04-06T02:31:56;9.00;;;8.10;;
79460;SDS011;68929;42.666;23.324;2023-04-06T02:34:21;8.45;;;7.20;;
79460;SDS011;68929;42.666;23.324;2023-04-06T02:36:47;7.18;;;6.47;;
79460;SDS011;68929;42.666;23.324;2023-04-06T02:39:12;8.57;;;7.57;;
79460;SDS011;68929;42.666;23.324;2023-04-06T02:41:38;8.70;;;7.45;;
79460;SDS011;68929;42.666;23.324;2023-04-06T02:44:06;7.65;;;6.85;;
79460;SDS011;68929;42.666;23.324;2023-04-06T02:46:33;6.38;;;5.78;;
79460;SDS011;68929;42.666;23.324;2023-04-06T02:48:58;10.93;;;8.88;;
79460;SDS011;68929;42.666;23.324;2023-04-06T02:51:25;11.90;;;9.07;;
79460;SDS011;68929;42.666;23.324;2023-04-06T02:53:51;9.85;;;8.25;;
79460;SDS011;68929;42.666;23.324;2023-04-06T02:56:17;9.25;;;8.35;;
79460;SDS011;68929;42.666;23.324;2023-04-06T02:58:42;12.68;;;9.35;;
79460;SDS011;68929;42.666;23.324;2023-04-06T03:01:08;9.85;;;8.85;;
79460;SDS011;68929;42.666;23.324;2023-04-06T03:03:33;10.63;;;9.15;;
79460;SDS011;68929;42.666;23.324;2023-04-06T03:05:58;14.77;;;9.95;;
79460;SDS011;68929;42.666;23.324;2023-04-06T03:08:25;10.05;;;8.10;;
79460;SDS011;68929;42.666;23.324;2023-04-06T03:10:50;10.20;;;7.10;;
79460;SDS011;68929;42.666;23.324;2023-04-06T03:13:16;13.68;;;9.65;;
79460;SDS011;68929;42.666;23.324;2023-04-06T03:15:41;13.15;;;8.90;;
79460;SDS011;68929;42.666;23.324;2023-04-06T03:18:07;13.73;;;9.35;;
79460;SDS011;68929;42.666;23.324;2023-04-06T03:20:32;9.43;;;8.30;;
79460;SDS011;68929;42.666;23.324;2023-04-06T03:22:57;13.75;;;10.48;;
79460;SDS011;68929;42.666;23.324;2023-04-06T03:25:23;10.73;;;8.10;;
79460;SDS011;68929;42.666;23.324;2023-04-06T03:27:49;10.32;;;8.13;;
79460;SDS011;68929;42.666;23.324;2023-04-06T03:30:14;10.93;;;9.15;;
79460;SDS011;68929;42.666;23.324;2023-04-06T03:32:42;9.63;;;7.68;;
79460;SDS011;68929;42.666;23.324;2023-04-06T03:35:10;9.82;;;7.97;;
79460;SDS011;68929;42.666;23.324;2023-04-06T03:37:36;8.95;;;8.05;;
79460;SDS011;68929;42.666;23.324;2023-04-06T03:40:01;8.80;;;7.35;;
79460;SDS011;68929;42.666;23.324;2023-04-06T03:42:27;10.82;;;9.18;;
79460;SDS011;68929;42.666;23.324;2023-04-06T03:44:53;9.55;;;8.55;;
79460;SDS011;68929;42.666;23.324;2023-04-06T03:47:18;11.10;;;8.35;;
79460;SDS011;68929;42.666;23.324;2023-04-06T03:49:44;9.02;;;7.93;;
79460;SDS011;68929;42.666;23.324;2023-04-06T03:52:09;9.20;;;7.35;;
79460;SDS011;68929;42.666;23.324;2023-04-06T03:54:35;9.80;;;8.77;;
79460;SDS011;68929;42.666;23.324;2023-04-06T03:57:01;10.20;;;7.40;;
79460;SDS011;68929;42.666;23.324;2023-04-06T03:59:26;8.98;;;8.05;;
79460;SDS011;68929;42.666;23.324;2023-04-06T04:01:52;8.27;;;6.72;;
79460;SDS011;68929;42.666;23.324;2023-04-06T04:04:17;8.85;;;7.15;;
79460;SDS011;68929;42.666;23.324;2023-04-06T04:06:43;10.20;;;8.02;;
79460;SDS011;68929;42.666;23.324;2023-04-06T04:09:08;8.63;;;7.70;;
79460;SDS011;68929;42.666;23.324;2023-04-06T04:11:33;7.05;;;6.35;;
79460;SDS011;68929;42.666;23.324;2023-04-06T04:13:59;11.88;;;8.73;;
79460;SDS011;68929;42.666;23.324;2023-04-06T04:16:24;8.32;;;7.43;;
79460;SDS011;68929;42.666;23.324;2023-04-06T04:18:50;9.82;;;7.38;;
79460;SDS011;68929;42.666;23.324;2023-04-06T04:21:15;9.35;;;7.43;;
79460;SDS011;68929;42.666;23.324;2023-04-06T04:23:41;9.55;;;7.88;;
79460;SDS011;68929;42.666;23.324;2023-04-06T04:26:06;8.70;;;7.10;;
79460;SDS011;68929;42.666;23.324;2023-04-06T04:28:32;10.73;;;8.35;;
79460;SDS011;68929;42.666;23.324;2023-04-06T04:30:57;11.00;;;9.48;;
79460;SDS011;68929;42.666;23.324;2023-04-06T04:33:23;11.30;;;9.10;;
79460;SDS011;68929;42.666;23.324;2023-04-06T04:35:48;15.32;;;10.95;;
79460;SDS011;68929;42.666;23.324;2023-04-06T04:38:14;12.27;;;9.45;;
79460;SDS011;68929;42.666;23.324;2023-04-06T04:40:39;9.50;;;8.13;;
79460;SDS011;68929;42.666;23.324;2023-04-06T04:43:05;10.90;;;9.27;;
79460;SDS011;68929;42.666;23.324;2023-04-06T04:45:30;11.82;;;9.25;;
79460;SDS011;68929;42.666;23.324;2023-04-06T04:47:56;9.75;;;8.10;;
79460;SDS011;68929;42.666;23.324;2023-04-06T04:50:21;13.30;;;10.57;;
79460;SDS011;68929;42.666;23.324;2023-04-06T04:52:47;11.75;;;9.68;;
79460;SDS011;68929;42.666;23.324;2023-04-06T04:55:12;10.75;;;8.32;;
79460;SDS011;68929;42.666;23.324;2023-04-06T04:57:38;13.05;;;8.25;;
79460;SDS011;68929;42.666;23.324;2023-04-06T05:00:03;13.23;;;10.23;;
79460;SDS011;68929;42.666;23.324;2023-04-06T05:02:29;10.82;;;8.80;;
79460;SDS011;68929;42.666;23.324;2023-04-06T05:04:55;12.25;;;10.18;;
79460;SDS011;68929;42.666;23.324;2023-04-06T05:07:20;9.68;;;8.50;;
79460;SDS011;68929;42.666;23.324;2023-04-06T05:09:51;12.50;;;9.18;;
79460;SDS011;68929;42.666;23.324;2023-04-06T05:12:17;12.25;;;10.65;;
79460;SDS011;68929;42.666;23.324;2023-04-06T05:14:43;10.73;;;7.60;;
79460;SDS011;68929;42.666;23.324;2023-04-06T05:17:09;12.30;;;9.98;;
79460;SDS011;68929;42.666;23.324;2023-04-06T05:19:35;13.20;;;10.95;;
79460;SDS011;68929;42.666;23.324;2023-04-06T05:22:00;10.15;;;8.27;;
79460;SDS011;68929;42.666;23.324;2023-04-06T05:24:26;15.65;;;11.95;;
79460;SDS011;68929;42.666;23.324;2023-04-06T05:26:51;11.73;;;9.50;;
79460;SDS011;68929;42.666;23.324;2023-04-06T05:29:16;12.98;;;11.15;;
79460;SDS011;68929;42.666;23.324;2023-04-06T05:31:43;14.90;;;11.30;;
79460;SDS011;68929;42.666;23.324;2023-04-06T05:34:09;13.45;;;10.70;;
79460;SDS011;68929;42.666;23.324;2023-04-06T05:36:35;13.73;;;11.68;;
79460;SDS011;68929;42.666;23.324;2023-04-06T05:39:01;15.00;;;11.55;;
79460;SDS011;68929;42.666;23.324;2023-04-06T05:41:26;13.18;;;10.43;;
79460;SDS011;68929;42.666;23.324;2023-04-06T05:43:51;17.75;;;12.88;;
79460;SDS011;68929;42.666;23.324;2023-04-06T05:46:17;14.63;;;10.23;;
79460;SDS011;68929;42.666;23.324;2023-04-06T05:48:43;19.73;;;13.63;;
79460;SDS011;68929;42.666;23.324;2023-04-06T05:51:08;15.93;;;12.65;;
79460;SDS011;68929;42.666;23.324;2023-04-06T05:53:34;16.33;;;13.88;;
79460;SDS011;68929;42.666;23.324;2023-04-06T05:56:03;15.85;;;12.57;;
79460;SDS011;68929;42.666;23.324;2023-04-06T05:58:29;11.52;;;9.15;;
79460;SDS011;68929;42.666;23.324;2023-04-06T06:01:00;14.68;;;10.80;;
79460;SDS011;68929;42.666;23.324;2023-04-06T06:03:26;15.30;;;11.95;;
79460;SDS011;68929;42.666;23.324;2023-04-06T06:05:52;14.98;;;11.10;;
79460;SDS011;68929;42.666;23.324;2023-04-06T06:08:17;13.98;;;9.60;;
79460;SDS011;68929;42.666;23.324;2023-04-06T06:10:42;15.50;;;11.60;;
79460;SDS011;68929;42.666;23.324;2023-04-06T06:13:08;17.90;;;14.60;;
79460;SDS011;68929;42.666;23.324;2023-04-06T06:15:34;19.85;;;13.73;;
79460;SDS011;68929;42.666;23.324;2023-04-06T06:18:00;17.48;;;13.25;;
79460;SDS011;68929;42.666;23.324;2023-04-06T06:20:26;13.70;;;11.00;;
79460;SDS011;68929;42.666;23.324;2023-04-06T06:22:52;17.45;;;13.30;;
79460;SDS011;68929;42.666;23.324;2023-04-06T06:25:17;19.15;;;12.73;;
79460;SDS011;68929;42.666;23.324;2023-04-06T06:27:46;24.00;;;18.88;;
79460;SDS011;68929;42.666;23.324;2023-04-06T06:30:17;27.55;;;19.33;;
79460;SDS011;68929;42.666;23.324;2023-04-06T06:32:42;18.20;;;11.63;;
79460;SDS011;68929;42.666;23.324;2023-04-06T06:35:08;16.52;;;13.75;;
79460;SDS011;68929;42.666;23.324;2023-04-06T06:37:33;14.40;;;12.15;;
79460;SDS011;68929;42.666;23.324;2023-04-06T06:39:59;16.45;;;13.30;;
79460;SDS011;68929;42.666;23.324;2023-04-06T06:42:24;18.23;;;12.75;;
79460;SDS011;68929;42.666;23.324;2023-04-06T06:44:51;14.43;;;12.13;;
79460;SDS011;68929;42.666;23.324;2023-04-06T06:47:16;15.30;;;12.93;;
79460;SDS011;68929;42.666;23.324;2023-04-06T06:49:42;13.77;;;12.00;;
79460;SDS011;68929;42.666;23.324;2023-04-06T06:52:07;16.60;;;13.30;;
79460;SDS011;68929;42.666;23.324;2023-04-06T06:54:33;19.80;;;16.20;;
79460;SDS011;68929;42.666;23.324;2023-04-06T06:57:01;18.98;;;14.63;;
79460;SDS011;68929;42.666;23.324;2023-04-06T06:59:26;16.50;;;13.48;;
79460;SDS011;68929;42.666;23.324;2023-04-06T07:01:52;21.05;;;14.38;;
79460;SDS011;68929;42.666;23.324;2023-04-06T07:04:17;20.90;;;14.07;;
79460;SDS011;68929;42.666;23.324;2023-04-06T07:06:42;16.38;;;13.68;;
79460;SDS011;68929;42.666;23.324;2023-04-06T07:09:08;21.38;;;15.60;;
79460;SDS011;68929;42.666;23.324;2023-04-06T07:11:34;15.80;;;13.55;;
79460;SDS011;68929;42.666;23.324;2023-04-06T07:14:04;18.83;;;12.75;;
79460;SDS011;68929;42.666;23.324;2023-04-06T07:16:29;16.90;;;12.37;;
79460;SDS011;68929;42.666;23.324;2023-04-06T07:18:55;14.98;;;11.18;;
79460;SDS011;68929;42.666;23.324;2023-04-06T07:21:26;13.27;;;10.88;;
79460;SDS011;68929;42.666;23.324;2023-04-06T07:23:54;13.75;;;10.25;;
79460;SDS011;68929;42.666;23.324;2023-04-06T07:26:20;13.93;;;11.10;;
79460;SDS011;68929;42.666;23.324;2023-04-06T07:28:50;20.58;;;12.55;;
79460;SDS011;68929;42.666;23.324;2023-04-06T07:31:22;13.38;;;10.00;;
79460;SDS011;68929;42.666;23.324;2023-04-06T07:33:48;17.73;;;12.48;;
79460;SDS011;68929;42.666;23.324;2023-04-06T07:36:15;20.45;;;15.13;;
79460;SDS011;68929;42.666;23.324;2023-04-06T07:38:40;17.88;;;13.80;;
79460;SDS011;68929;42.666;23.324;2023-04-06T07:41:05;17.75;;;12.15;;
79460;SDS011;68929;42.666;23.324;2023-04-06T07:43:32;16.20;;;11.93;;
79460;SDS011;68929;42.666;23.324;2023-04-06T07:45:58;16.02;;;12.00;;
79460;SDS011;68929;42.666;23.324;2023-04-06T07:48:25;19.45;;;14.93;;
79460;SDS011;68929;42.666;23.324;2023-04-06T07:50:51;18.92;;;12.85;;
79460;SDS011;68929;42.666;23.324;2023-04-06T07:53:16;16.02;;;12.45;;
79460;SDS011;68929;42.666;23.324;2023-04-06T07:55:42;20.05;;;14.18;;
79460;SDS011;68929;42.666;23.324;2023-04-06T07:58:18;18.08;;;11.60;;
79460;SDS011;68929;42.666;23.324;2023-04-06T08:00:49;17.88;;;13.75;;
79460;SDS011;68929;42.666;23.324;2023-04-06T08:03:20;19.42;;;14.88;;
79460;SDS011;68929;42.666;23.324;2023-04-06T08:05:46;19.23;;;12.75;;
79460;SDS011;68929;42.666;23.324;2023-04-06T08:08:11;16.13;;;13.13;;
79460;SDS011;68929;42.666;23.324;2023-04-06T08:10:38;16.00;;;12.48;;
79460;SDS011;68929;42.666;23.324;2023-04-06T08:13:10;16.10;;;11.77;;
79460;SDS011;68929;42.666;23.324;2023-04-06T08:15:35;15.75;;;12.95;;
79460;SDS011;68929;42.666;23.324;2023-04-06T08:18:01;17.58;;;11.73;;
79460;SDS011;68929;42.666;23.324;2023-04-06T08:20:26;20.52;;;13.98;;
79460;SDS011;68929;42.666;23.324;2023-04-06T08:22:52;18.73;;;14.20;;
79460;SDS011;68929;42.666;23.324;2023-04-06T08:25:20;13.23;;;9.50;;
79460;SDS011;68929;42.666;23.324;2023-04-06T08:27:49;17.10;;;13.05;;
79460;SDS011;68929;42.666;23.324;2023-04-06T08:30:16;14.75;;;10.25;;
79460;SDS011;68929;42.666;23.324;2023-04-06T08:32:41;15.30;;;11.50;;
79460;SDS011;68929;42.666;23.324;2023-04-06T08:35:07;15.43;;;12.23;;
79460;SDS011;68929;42.666;23.324;2023-04-06T08:37:33;18.17;;;11.25;;
79460;SDS011;68929;42.666;23.324;2023-04-06T08:39:58;13.60;;;11.98;;
79460;SDS011;68929;42.666;23.324;2023-04-06T08:42:25;14.52;;;10.68;;
79460;SDS011;68929;42.666;23.324;2023-04-06T08:44:52;13.82;;;11.25;;
79460;SDS011;68929;42.666;23.324;2023-04-06T08:47:18;12.60;;;8.95;;
79460;SDS011;68929;42.666;23.324;2023-04-06T08:49:50;12.68;;;10.48;;
79460;SDS011;68929;42.666;23.324;2023-04-06T08:52:26;13.43;;;10.70;;
79460;SDS011;68929;42.666;23.324;2023-04-06T08:54:53;11.68;;;9.63;;
79460;SDS011;68929;42.666;23.324;2023-04-06T08:57:18;10.07;;;8.77;;
79460;SDS011;68929;42.666;23.324;2023-04-06T08:59:44;19.30;;;11.77;;
79460;SDS011;68929;42.666;23.324;2023-04-06T09:02:11;13.38;;;10.60;;
79460;SDS011;68929;42.666;23.324;2023-04-06T09:04:43;13.60;;;9.55;;
79460;SDS011;68929;42.666;23.324;2023-04-06T09:07:17;12.10;;;10.57;;
79460;SDS011;68929;42.666;23.324;2023-04-06T09:09:42;12.48;;;11.15;;
79460;SDS011;68929;42.666;23.324;2023-04-06T09:12:25;15.80;;;12.27;;
79460;SDS011;68929;42.666;23.324;2023-04-06T09:15:00;17.55;;;13.20;;
79460;SDS011;68929;42.666;23.324;2023-04-06T09:17:28;15.52;;;10.90;;
79460;SDS011;68929;42.666;23.324;2023-04-06T09:19:53;7.10;;;5.05;;
79460;SDS011;68929;42.666;23.324;2023-04-06T09:22:25;20.23;;;13.05;;
79460;SDS011;68929;42.666;23.324;2023-04-06T09:24:59;13.15;;;10.05;;
79460;SDS011;68929;42.666;23.324;2023-04-06T09:27:31;10.98;;;8.80;;
79460;SDS011;68929;42.666;23.324;2023-04-06T09:32:54;11.25;;;8.40;;
79460;SDS011;68929;42.666;23.324;2023-04-06T09:35:21;13.70;;;10.68;;
79460;SDS011;68929;42.666;23.324;2023-04-06T09:37:52;10.55;;;9.43;;
79460;SDS011;68929;42.666;23.324;2023-04-06T09:40:35;12.40;;;10.48;;
79460;SDS011;68929;42.666;23.324;2023-04-06T09:43:00;13.07;;;9.93;;
79460;SDS011;68929;42.666;23.324;2023-04-06T09:45:28;12.43;;;9.63;;
79460;SDS011;68929;42.666;23.324;2023-04-06T09:47:58;13.02;;;10.90;;
79460;SDS011;68929;42.666;23.324;2023-04-06T09:50:37;11.23;;;9.85;;
79460;SDS011;68929;42.666;23.324;2023-04-06T09:53:08;12.65;;;10.30;;
79460;SDS011;68929;42.666;23.324;2023-04-06T09:55:35;10.45;;;9.30;;
79460;SDS011;68929;42.666;23.324;2023-04-06T09:58:08;14.40;;;10.45;;
79460;SDS011;68929;42.666;23.324;2023-04-06T10:00:42;13.67;;;11.67;;
79460;SDS011;68929;42.666;23.324;2023-04-06T10:03:21;12.82;;;11.13;;
79460;SDS011;68929;42.666;23.324;2023-04-06T10:05:57;11.80;;;9.05;;
79460;SDS011;68929;42.666;23.324;2023-04-06T10:08:32;11.93;;;10.50;;
79460;SDS011;68929;42.666;23.324;2023-04-06T10:11:01;10.68;;;9.32;;
79460;SDS011;68929;42.666;23.324;2023-04-06T10:13:27;10.30;;;8.75;;
79460;SDS011;68929;42.666;23.324;2023-04-06T10:15:52;9.98;;;7.63;;
79460;SDS011;68929;42.666;23.324;2023-04-06T10:18:19;12.82;;;9.93;;
79460;SDS011;68929;42.666;23.324;2023-04-06T10:20:50;12.30;;;9.60;;
79460;SDS011;68929;42.666;23.324;2023-04-06T10:23:35;11.88;;;9.57;;
79460;SDS011;68929;42.666;23.324;2023-04-06T10:26:16;11.68;;;9.85;;
79460;SDS011;68929;42.666;23.324;2023-04-06T10:28:45;15.25;;;12.23;;
79460;SDS011;68929;42.666;23.324;2023-04-06T10:31:14;12.70;;;9.73;;
79460;SDS011;68929;42.666;23.324;2023-04-06T10:34:13;13.48;;;10.52;;
79460;SDS011;68929;42.666;23.324;2023-04-06T10:36:40;12.15;;;10.25;;
79460;SDS011;68929;42.666;23.324;2023-04-06T10:39:05;12.60;;;10.32;;
79460;SDS011;68929;42.666;23.324;2023-04-06T10:41:34;10.07;;;8.57;;
79460;SDS011;68929;42.666;23.324;2023-04-06T10:44:22;11.85;;;9.63;;
79460;SDS011;68929;42.666;23.324;2023-04-06T10:46:56;12.32;;;9.70;;
79460;SDS011;68929;42.666;23.324;2023-04-06T10:49:25;10.82;;;8.40;;
79460;SDS011;68929;42.666;23.324;2023-04-06T10:51:55;13.50;;;9.07;;
79460;SDS011;68929;42.666;23.324;2023-04-06T10:54:22;14.63;;;11.33;;
79460;SDS011;68929;42.666;23.324;2023-04-06T10:56:55;12.65;;;10.52;;
79460;SDS011;68929;42.666;23.324;2023-04-06T10:59:25;15.73;;;11.60;;
79460;SDS011;68929;42.666;23.324;2023-04-06T11:01:54;13.57;;;10.30;;
79460;SDS011;68929;42.666;23.324;2023-04-06T11:04:26;13.35;;;11.27;;
79460;SDS011;68929;42.666;23.324;2023-04-06T11:06:55;11.60;;;9.73;;
79460;SDS011;68929;42.666;23.324;2023-04-06T11:09:24;11.95;;;10.65;;
79460;SDS011;68929;42.666;23.324;2023-04-06T11:11:53;12.18;;;10.52;;
79460;SDS011;68929;42.666;23.324;2023-04-06T11:14:20;11.27;;;10.07;;
79460;SDS011;68929;42.666;23.324;2023-04-06T11:16:46;12.55;;;10.05;;
79460;SDS011;68929;42.666;23.324;2023-04-06T11:19:19;16.88;;;10.82;;
79460;SDS011;68929;42.666;23.324;2023-04-06T11:21:46;14.13;;;11.00;;
79460;SDS011;68929;42.666;23.324;2023-04-06T11:24:18;10.52;;;8.38;;
79460;SDS011;68929;42.666;23.324;2023-04-06T11:26:49;11.80;;;10.60;;
79460;SDS011;68929;42.666;23.324;2023-04-06T11:29:17;11.43;;;10.23;;
79460;SDS011;68929;42.666;23.324;2023-04-06T11:31:48;12.23;;;10.18;;
79460;SDS011;68929;42.666;23.324;2023-04-06T11:34:33;12.75;;;10.38;;
79460;SDS011;68929;42.666;23.324;2023-04-06T11:37:08;14.40;;;10.43;;
79460;SDS011;68929;42.666;23.324;2023-04-06T11:39:38;9.50;;;7.53;;
79460;SDS011;68929;42.666;23.324;2023-04-06T11:42:05;14.00;;;10.80;;
79460;SDS011;68929;42.666;23.324;2023-04-06T11:44:35;10.55;;;9.45;;
79460;SDS011;68929;42.666;23.324;2023-04-06T11:47:09;13.88;;;10.68;;
79460;SDS011;68929;42.666;23.324;2023-04-06T11:49:47;12.32;;;10.32;;
79460;SDS011;68929;42.666;23.324;2023-04-06T11:54:45;12.13;;;10.05;;
79460;SDS011;68929;42.666;23.324;2023-04-06T11:57:12;10.88;;;9.55;;
79460;SDS011;68929;42.666;23.324;2023-04-06T11:59:38;14.27;;;9.18;;
79460;SDS011;68929;42.666;23.324;2023-04-06T12:02:03;12.77;;;10.25;;
79460;SDS011;68929;42.666;23.324;2023-04-06T12:04:33;15.32;;;10.95;;
79460;SDS011;68929;42.666;23.324;2023-04-06T12:06:58;9.07;;;7.88;;
79460;SDS011;68929;42.666;23.324;2023-04-06T12:09:24;11.43;;;9.50;;
79460;SDS011;68929;42.666;23.324;2023-04-06T12:11:50;13.57;;;11.93;;
79460;SDS011;68929;42.666;23.324;2023-04-06T12:14:15;14.43;;;12.50;;
79460;SDS011;68929;42.666;23.324;2023-04-06T12:16:41;14.05;;;6.28;;
79460;SDS011;68929;42.666;23.324;2023-04-06T12:19:11;11.23;;;9.68;;
79460;SDS011;68929;42.666;23.324;2023-04-06T12:21:36;12.55;;;11.23;;
79460;SDS011;68929;42.666;23.324;2023-04-06T12:24:02;12.43;;;10.68;;
79460;SDS011;68929;42.666;23.324;2023-04-06T12:26:33;12.23;;;8.90;;
79460;SDS011;68929;42.666;23.324;2023-04-06T12:29:00;12.80;;;11.13;;
79460;SDS011;68929;42.666;23.324;2023-04-06T12:31:36;12.48;;;10.90;;
79460;SDS011;68929;42.666;23.324;2023-04-06T12:34:13;14.25;;;10.55;;
79460;SDS011;68929;42.666;23.324;2023-04-06T12:36:38;13.52;;;10.70;;
79460;SDS011;68929;42.666;23.324;2023-04-06T12:39:05;11.75;;;9.50;;
79460;SDS011;68929;42.666;23.324;2023-04-06T12:41:31;13.98;;;11.52;;
79460;SDS011;68929;42.666;23.324;2023-04-06T12:43:58;13.73;;;11.07;;
79460;SDS011;68929;42.666;23.324;2023-04-06T12:46:31;11.10;;;9.73;;
79460;SDS011;68929;42.666;23.324;2023-04-06T12:48:59;14.40;;;10.95;;
79460;SDS011;68929;42.666;23.324;2023-04-06T12:51:28;13.82;;;11.80;;
79460;SDS011;68929;42.666;23.324;2023-04-06T12:54:00;13.25;;;10.80;;
79460;SDS011;68929;42.666;23.324;2023-04-06T12:56:31;15.15;;;9.82;;
79460;SDS011;68929;42.666;23.324;2023-04-06T12:58:57;12.15;;;9.60;;
79460;SDS011;68929;42.666;23.324;2023-04-06T13:01:23;15.43;;;12.38;;
79460;SDS011;68929;42.666;23.324;2023-04-06T13:03:48;9.70;;;8.70;;
79460;SDS011;68929;42.666;23.324;2023-04-06T13:06:14;10.82;;;8.98;;
79460;SDS011;68929;42.666;23.324;2023-04-06T13:08:40;10.30;;;9.30;;
79460;SDS011;68929;42.666;23.324;2023-04-06T13:11:06;12.27;;;9.02;;
79460;SDS011;68929;42.666;23.324;2023-04-06T13:13:34;12.07;;;10.70;;
79460;SDS011;68929;42.666;23.324;2023-04-06T13:16:01;10.63;;;8.10;;
79460;SDS011;68929;42.666;23.324;2023-04-06T13:18:32;11.38;;;8.63;;
79460;SDS011;68929;42.666;23.324;2023-04-06T13:20:58;13.13;;;10.57;;
79460;SDS011;68929;42.666;23.324;2023-04-06T13:23:34;13.52;;;12.13;;
79460;SDS011;68929;42.666;23.324;2023-04-06T13:26:05;14.35;;;11.20;;
79460;SDS011;68929;42.666;23.324;2023-04-06T13:28:33;15.27;;;11.25;;
79460;SDS011;68929;42.666;23.324;2023-04-06T13:31:00;14.82;;;12.00;;
79460;SDS011;68929;42.666;23.324;2023-04-06T13:33:27;12.07;;;10.07;;
79460;SDS011;68929;42.666;23.324;2023-04-06T13:35:53;12.65;;;9.35;;
79460;SDS011;68929;42.666;23.324;2023-04-06T13:38:19;14.07;;;10.73;;
79460;SDS011;68929;42.666;23.324;2023-04-06T13:40:44;15.10;;;11.63;;
79460;SDS011;68929;42.666;23.324;2023-04-06T13:43:10;12.23;;;10.30;;
79460;SDS011;68929;42.666;23.324;2023-04-06T13:45:36;11.75;;;9.73;;
79460;SDS011;68929;42.666;23.324;2023-04-06T13:48:02;11.02;;;9.93;;
79460;SDS011;68929;42.666;23.324;2023-04-06T13:50:28;10.65;;;9.45;;
79460;SDS011;68929;42.666;23.324;2023-04-06T13:52:53;10.15;;;8.82;;
79460;SDS011;68929;42.666;23.324;2023-04-06T13:55:19;9.27;;;7.85;;
79460;SDS011;68929;42.666;23.324;2023-04-06T13:57:45;13.30;;;10.07;;
79460;SDS011;68929;42.666;23.324;2023-04-06T14:00:11;10.15;;;8.77;;
79460;SDS011;68929;42.666;23.324;2023-04-06T14:02:37;10.73;;;8.82;;
79460;SDS011;68929;42.666;23.324;2023-04-06T14:05:04;13.27;;;11.20;;
79460;SDS011;68929;42.666;23.324;2023-04-06T14:07:30;11.88;;;8.25;;
79460;SDS011;68929;42.666;23.324;2023-04-06T14:09:55;11.50;;;8.30;;
79460;SDS011;68929;42.666;23.324;2023-04-06T14:12:21;11.80;;;9.77;;
79460;SDS011;68929;42.666;23.324;2023-04-06T14:14:46;10.63;;;9.30;;
79460;SDS011;68929;42.666;23.324;2023-04-06T14:17:12;12.52;;;11.23;;
79460;SDS011;68929;42.666;23.324;2023-04-06T14:19:39;10.10;;;8.05;;
79460;SDS011;68929;42.666;23.324;2023-04-06T14:22:04;13.50;;;10.52;;
79460;SDS011;68929;42.666;23.324;2023-04-06T14:24:30;16.38;;;11.23;;
79460;SDS011;68929;42.666;23.324;2023-04-06T14:26:56;14.75;;;12.65;;